createdAt,value
2019-02-25T00:00:33.346Z,60.08
2019-02-25T00:03:01.764Z,51.73
2019-02-25T00:05:30.156Z,61.63
2019-02-25T00:07:58.561Z,60.43
2019-02-25T00:10:27.343Z,57.27
2019-02-25T00:12:55.755Z,63.73
2019-02-25T00:15:24.182Z,60.75
2019-02-25T00:17:52.684Z,66.67
2019-02-25T00:20:21.066Z,61.45
2019-02-25T00:22:49.457Z,63.05
2019-02-25T00:25:17.904Z,63.75
2019-02-25T00:27:46.303Z,63.13
2019-02-25T00:30:15.432Z,59.45
2019-02-25T00:32:43.851Z,58.58
2019-02-25T00:35:12.253Z,56.88
2019-02-25T00:37:40.647Z,60.75
2019-02-25T00:40:11.352Z,59.60
2019-02-25T00:42:39.807Z,60.75
2019-02-25T00:45:10.794Z,59.33
2019-02-25T00:47:39.250Z,57.78
2019-02-25T00:50:15.907Z,60.15
2019-02-25T00:52:44.320Z,59.42
2019-02-25T00:55:13.794Z,59.05
2019-02-25T00:57:42.230Z,63.80
2019-02-25T01:00:22.758Z,63.55
2019-02-25T01:02:51.156Z,60.73
2019-02-25T01:05:21.505Z,56.65
2019-02-25T01:07:51.247Z,59.38
2019-02-25T01:10:19.766Z,56.53
2019-02-25T01:12:48.093Z,55.83
2019-02-25T01:15:17.505Z,60.23
2019-02-25T01:17:45.924Z,56.53
2019-02-25T01:20:16.487Z,55.20
2019-02-25T01:22:44.892Z,57.05
2019-02-25T01:25:14.648Z,54.48
2019-02-25T01:27:43.387Z,56.70
2019-02-25T01:30:16.560Z,59.90
2019-02-25T01:32:44.986Z,59.67
2019-02-25T01:35:14.260Z,63.55
2019-02-25T01:37:42.684Z,61.23
2019-02-25T01:40:14.705Z,60.50
2019-02-25T01:42:43.091Z,67.30
2019-02-25T01:45:13.821Z,56.53
2019-02-25T01:47:42.210Z,57.15
2019-02-25T01:50:11.252Z,61.68
2019-02-25T01:52:39.677Z,56.60
2019-02-25T01:55:10.577Z,58.70
2019-02-25T01:57:38.947Z,54.10
2019-02-25T02:00:10.648Z,56.02
2019-02-25T02:02:39.027Z,59.90
2019-02-25T02:05:07.438Z,56.35
2019-02-25T02:07:35.875Z,54.98
2019-02-25T02:10:06.302Z,51.83
2019-02-25T02:12:34.695Z,56.75
2019-02-25T02:15:03.385Z,51.35
2019-02-25T02:17:31.822Z,52.48
2019-02-25T02:20:00.296Z,54.13
2019-02-25T02:22:28.615Z,47.62
2019-02-25T02:24:57.008Z,47.62
2019-02-25T02:27:25.510Z,52.25
2019-02-25T02:29:53.891Z,47.17
2019-02-25T02:32:22.284Z,48.80
2019-02-25T02:34:51.685Z,45.63
2019-02-25T02:37:21.122Z,50.03
2019-02-25T02:39:50.439Z,50.03
2019-02-25T02:42:20.366Z,47.70
2019-02-25T02:44:53.192Z,47.95
2019-02-25T02:47:30.733Z,46.28
2019-02-25T02:50:01.306Z,47.70
2019-02-25T02:52:29.692Z,48.98
2019-02-25T02:54:58.485Z,45.35
2019-02-25T02:57:26.863Z,48.87
2019-02-25T02:59:55.251Z,46.63
2019-02-25T03:02:23.703Z,45.05
2019-02-25T03:04:52.095Z,47.05
2019-02-25T03:07:20.481Z,44.93
2019-02-25T03:09:48.960Z,45.55
2019-02-25T03:12:20.965Z,45.52
2019-02-25T03:14:49.344Z,46.68
2019-02-25T03:17:17.779Z,45.50
2019-02-25T03:19:48.518Z,46.88
2019-02-25T03:22:18.897Z,43.45
2019-02-25T03:24:48.330Z,42.40
2019-02-25T03:27:18.721Z,47.73
2019-02-25T03:29:47.139Z,45.65
2019-02-25T03:32:15.538Z,47.78
2019-02-25T03:34:43.931Z,48.00
2019-02-25T03:37:12.390Z,46.73
2019-02-25T03:39:41.731Z,46.63
2019-02-25T03:42:10.130Z,48.40
2019-02-25T03:44:38.524Z,48.55
2019-02-25T03:47:06.965Z,48.17
2019-02-25T03:49:35.371Z,45.52
2019-02-25T03:52:03.759Z,47.65
2019-02-25T03:54:32.151Z,51.42
2019-02-25T03:57:00.534Z,52.03
2019-02-25T03:59:28.975Z,48.73
2019-02-25T04:01:57.353Z,49.08
2019-02-25T04:04:25.843Z,51.02
2019-02-25T04:06:54.572Z,45.45
2019-02-25T04:09:26.991Z,52.17
2019-02-25T04:14:24.053Z,49.70
2019-02-25T04:16:52.437Z,47.62
2019-02-25T04:19:21.872Z,51.13
2019-02-25T04:21:53.912Z,48.92
2019-02-25T04:24:22.369Z,45.05
2019-02-25T04:26:50.763Z,43.65
2019-02-25T04:29:19.145Z,48.98
2019-02-25T04:31:47.530Z,44.25
2019-02-25T04:34:15.928Z,40.98
2019-02-25T04:36:44.356Z,42.73
2019-02-25T04:39:12.748Z,48.55
2019-02-25T04:41:41.124Z,39.63
2019-02-25T04:44:09.623Z,43.42
2019-02-25T04:46:37.981Z,42.23
2019-02-25T04:49:06.364Z,40.55
2019-02-25T04:51:35.794Z,41.92
2019-02-25T04:54:04.183Z,48.38
2019-02-25T04:56:32.583Z,42.25
2019-02-25T04:59:00.981Z,48.28
2019-02-25T05:01:29.387Z,44.03
2019-02-25T05:03:57.787Z,48.80
2019-02-25T05:06:26.178Z,45.85
2019-02-25T05:08:54.564Z,43.48
2019-02-25T05:11:25.755Z,44.08
2019-02-25T05:13:54.557Z,50.10
2019-02-25T05:16:22.932Z,42.03
2019-02-25T05:18:51.312Z,49.05
2019-02-25T05:21:19.799Z,42.95
2019-02-25T05:23:48.184Z,40.38
2019-02-25T05:26:16.727Z,41.60
2019-02-25T05:28:45.173Z,42.25
2019-02-25T05:31:13.923Z,43.92
2019-02-25T05:33:43.274Z,46.98
2019-02-25T05:36:12.122Z,48.40
2019-02-25T05:38:40.906Z,50.45
2019-02-25T05:41:10.255Z,45.98
2019-02-25T05:43:38.764Z,43.40
2019-02-25T05:46:08.224Z,48.10
2019-02-25T05:48:36.629Z,44.08
2019-02-25T05:51:05.025Z,44.65
2019-02-25T05:53:35.888Z,44.45
2019-02-25T05:56:04.347Z,46.75
2019-02-25T05:58:33.752Z,47.65
2019-02-25T06:01:02.210Z,46.55
2019-02-25T06:03:30.617Z,48.38
2019-02-25T06:06:01.002Z,48.02
2019-02-25T06:08:29.441Z,43.23
2019-02-25T06:10:58.817Z,47.65
2019-02-25T06:13:27.187Z,39.30
2019-02-25T06:15:56.585Z,42.53
2019-02-25T06:18:24.996Z,45.73
2019-02-25T06:20:53.476Z,43.30
2019-02-25T06:23:22.849Z,46.77
2019-02-25T06:25:58.861Z,45.30
2019-02-25T06:28:27.805Z,38.48
2019-02-25T06:30:57.615Z,42.17
2019-02-25T06:33:26.186Z,43.55
2019-02-25T06:35:56.002Z,44.35
2019-02-25T06:38:27.429Z,49.30
2019-02-25T06:40:56.133Z,38.45
2019-02-25T06:43:24.868Z,44.67
2019-02-25T06:45:53.355Z,45.30
2019-02-25T06:48:21.864Z,56.75
2019-02-25T06:50:51.843Z,42.20
2019-02-25T06:53:24.577Z,50.03
2019-02-25T06:55:53.995Z,44.45
2019-02-25T06:58:23.369Z,44.38
2019-02-25T07:00:51.781Z,49.88
2019-02-25T07:03:20.250Z,39.85
2019-02-25T07:06:03.575Z,42.03
2019-02-25T07:08:37.476Z,41.37
2019-02-25T07:11:10.642Z,51.75
2019-02-25T07:13:40.712Z,46.05
2019-02-25T07:16:24.055Z,46.37
2019-02-25T07:19:00.049Z,47.20
2019-02-25T07:21:33.182Z,44.18
2019-02-25T07:24:15.291Z,47.90
2019-02-25T07:26:47.822Z,49.73
2019-02-25T07:32:12.909Z,53.05
2019-02-25T07:34:45.470Z,45.58
2019-02-25T07:39:53.801Z,46.40
2019-02-25T07:42:26.749Z,47.83
2019-02-25T07:44:59.427Z,42.93
2019-02-25T07:47:32.599Z,40.88
2019-02-25T07:50:05.187Z,41.85
2019-02-25T07:52:47.192Z,41.37
2019-02-25T07:55:29.608Z,40.10
2019-02-25T07:58:11.433Z,42.33
2019-02-25T08:00:48.449Z,42.30
2019-02-25T08:03:30.499Z,43.85
2019-02-25T08:06:03.765Z,41.33
2019-02-25T08:08:34.840Z,44.58
2019-02-25T08:11:07.757Z,38.33
2019-02-25T08:13:45.212Z,43.17
2019-02-25T08:16:18.930Z,42.73
2019-02-25T08:18:53.060Z,43.40
2019-02-25T08:21:25.895Z,39.98
2019-02-25T08:24:01.905Z,44.90
2019-02-25T08:26:31.943Z,44.23
2019-02-25T08:29:02.295Z,40.17
2019-02-25T08:31:32.384Z,41.70
2019-02-25T08:34:05.410Z,43.50
2019-02-25T08:37:12.884Z,40.90
2019-02-25T08:39:50.652Z,38.85
2019-02-25T08:42:37.853Z,38.23
2019-02-25T08:45:10.889Z,42.73
2019-02-25T08:47:40.932Z,41.80
2019-02-25T08:50:11.959Z,40.83
2019-02-25T08:52:40.489Z,39.25
2019-02-25T08:55:10.773Z,39.05
2019-02-25T08:57:41.134Z,36.70
2019-02-25T09:00:14.442Z,40.03
2019-02-25T09:02:43.474Z,37.60
2019-02-25T09:05:13.912Z,39.75
2019-02-25T09:07:42.961Z,40.28
2019-02-25T09:10:13.596Z,41.40
2019-02-25T09:12:42.210Z,40.25
2019-02-25T09:15:13.260Z,41.08
2019-02-25T09:17:44.396Z,36.55
2019-02-25T09:20:14.338Z,33.02
2019-02-25T09:22:42.789Z,36.58
2019-02-25T09:25:15.858Z,36.08
2019-02-25T09:27:44.249Z,37.40
2019-02-25T09:30:19.696Z,41.30
2019-02-25T09:32:48.176Z,35.38
2019-02-25T09:35:17.144Z,36.10
2019-02-25T09:37:45.606Z,36.03
2019-02-25T09:40:16.700Z,37.70
2019-02-25T09:42:45.102Z,36.20
2019-02-25T09:45:15.197Z,35.43
2019-02-25T09:47:43.771Z,36.63
2019-02-25T09:50:14.754Z,35.20
2019-02-25T09:52:43.223Z,37.38
2019-02-25T09:55:14.171Z,36.20
2019-02-25T09:57:42.589Z,41.70
2019-02-25T10:00:18.223Z,39.75
2019-02-25T10:02:46.610Z,40.08
2019-02-25T10:05:15.021Z,38.65
2019-02-25T10:07:44.683Z,40.17
2019-02-25T10:10:15.127Z,38.78
2019-02-25T10:12:43.474Z,37.45
2019-02-25T10:15:16.025Z,42.08
2019-02-25T10:17:44.439Z,40.33
2019-02-25T10:20:14.799Z,42.38
2019-02-25T10:22:45.174Z,42.45
2019-02-25T10:25:13.582Z,41.48
2019-02-25T10:27:42.000Z,43.23
2019-02-25T10:30:17.545Z,50.10
2019-02-25T10:32:45.941Z,47.50
2019-02-25T10:35:19.903Z,49.42
2019-02-25T10:37:48.333Z,49.90
2019-02-25T10:40:19.074Z,49.42
2019-02-25T10:42:46.809Z,48.45
2019-02-25T10:45:20.515Z,45.70
2019-02-25T10:47:49.449Z,44.83
2019-02-25T10:50:20.092Z,45.55
2019-02-25T10:52:49.535Z,51.45
2019-02-25T10:55:24.196Z,45.43
2019-02-25T10:57:53.284Z,48.83
2019-02-25T11:00:22.748Z,45.85
2019-02-25T11:02:53.331Z,46.30
2019-02-25T11:05:23.171Z,47.98
2019-02-25T11:07:51.417Z,49.77
2019-02-25T11:10:22.367Z,46.70
2019-02-25T11:12:53.360Z,48.78
2019-02-25T11:15:22.085Z,46.85
2019-02-25T11:17:51.805Z,52.83
2019-02-25T11:20:20.761Z,59.18
2019-02-25T11:22:49.123Z,53.70
2019-02-25T11:25:19.280Z,52.62
2019-02-25T11:27:49.625Z,51.55
2019-02-25T11:30:19.370Z,55.73
2019-02-25T11:32:51.115Z,52.55
2019-02-25T11:35:19.474Z,50.30
2019-02-25T11:37:49.537Z,56.28
2019-02-25T11:40:18.006Z,52.13
2019-02-25T11:42:46.395Z,54.25
2019-02-25T11:45:18.856Z,57.13
2019-02-25T11:47:47.262Z,48.92
2019-02-25T11:50:17.739Z,54.00
2019-02-25T11:52:46.150Z,55.10
2019-02-25T11:55:15.581Z,52.27
2019-02-25T11:57:44.005Z,56.88
2019-02-25T12:00:17.050Z,54.13
2019-02-25T12:02:45.441Z,55.45
2019-02-25T12:05:16.106Z,56.28
2019-02-25T12:07:44.587Z,54.60
2019-02-25T12:10:14.635Z,56.40
2019-02-25T12:12:43.895Z,55.38
2019-02-25T12:15:24.975Z,63.40
2019-02-25T12:17:53.479Z,59.60
2019-02-25T12:20:22.212Z,56.23
2019-02-25T12:22:50.677Z,57.93
2019-02-25T12:25:24.180Z,55.30
2019-02-25T12:27:53.807Z,60.20
2019-02-25T12:30:26.433Z,58.50
2019-02-25T12:32:54.888Z,57.15
2019-02-25T12:35:23.959Z,61.88
2019-02-25T12:37:52.561Z,58.25
2019-02-25T12:40:21.783Z,61.30
2019-02-25T12:42:50.184Z,53.73
2019-02-25T12:45:18.876Z,54.40
2019-02-25T12:47:47.354Z,59.58
2019-02-25T12:50:20.208Z,53.60
2019-02-25T12:52:48.597Z,56.85
2019-02-25T12:55:18.415Z,66.12
2019-02-25T12:57:46.798Z,63.92
2019-02-25T13:00:23.145Z,71.20
2019-02-25T13:02:51.587Z,64.20
2019-02-25T13:05:21.637Z,62.20
2019-02-25T13:07:51.100Z,66.30
2019-02-25T13:10:19.513Z,63.28
2019-02-25T13:12:47.900Z,59.80
2019-02-25T13:15:18.565Z,63.90
2019-02-25T13:17:47.019Z,60.67
2019-02-25T13:20:15.915Z,68.15
2019-02-25T13:22:44.412Z,65.25
2019-02-25T13:25:21.799Z,58.45
2019-02-25T13:27:51.827Z,57.33
2019-02-25T13:30:23.022Z,62.60
2019-02-25T13:32:52.461Z,61.58
2019-02-25T13:35:20.874Z,61.60
2019-02-25T13:37:49.289Z,64.27
2019-02-25T13:40:18.565Z,64.82
2019-02-25T13:42:47.004Z,70.15
2019-02-25T13:45:18.152Z,65.85
2019-02-25T13:47:46.704Z,66.00
2019-02-25T13:50:16.160Z,62.88
2019-02-25T13:52:48.152Z,65.62
2019-02-25T13:55:16.908Z,55.17
2019-02-25T13:57:45.329Z,61.75
2019-02-25T14:00:18.652Z,61.02
2019-02-25T14:02:47.163Z,62.50
2019-02-25T14:05:15.879Z,59.80
2019-02-25T14:07:44.252Z,65.30
2019-02-25T14:10:14.033Z,68.07
2019-02-25T14:12:42.418Z,66.62
2019-02-25T14:15:19.371Z,69.42
2019-02-25T14:17:47.787Z,68.83
2019-02-25T14:20:22.511Z,67.22
2019-02-25T14:22:51.981Z,68.85
2019-02-25T14:25:28.250Z,71.70
2019-02-25T14:27:57.031Z,71.02
2019-02-25T14:30:26.496Z,67.47
2019-02-25T14:32:55.435Z,74.77
2019-02-25T14:35:28.473Z,74.35
2019-02-25T14:40:29.835Z,80.40
2019-02-25T14:43:00.024Z,82.20
2019-02-25T14:45:31.493Z,73.40
2019-02-25T14:48:02.498Z,73.80
2019-02-25T14:50:30.550Z,70.52
2019-02-25T14:53:00.626Z,80.35
2019-02-25T14:55:30.108Z,73.45
2019-02-25T14:58:02.173Z,74.62
2019-02-25T15:00:31.705Z,75.60
2019-02-25T15:02:58.806Z,80.83
2019-02-25T15:05:27.270Z,82.45
2019-02-25T15:07:56.613Z,81.42
2019-02-25T15:10:29.014Z,80.97
2019-02-25T15:12:59.068Z,80.00
2019-02-25T15:15:27.341Z,77.32
2019-02-25T15:17:55.709Z,87.88
2019-02-25T15:20:26.092Z,89.45
2019-02-25T15:22:54.351Z,82.22
2019-02-25T15:25:22.752Z,88.05
2019-02-25T15:27:51.178Z,84.85
2019-02-25T15:30:28.339Z,84.15
2019-02-25T15:32:59.847Z,82.67
2019-02-25T15:35:31.391Z,93.52
2019-02-25T15:37:58.329Z,95.97
2019-02-25T15:40:29.438Z,97.92
2019-02-25T15:43:12.691Z,95.07
2019-02-25T15:45:42.509Z,93.58
2019-02-25T15:48:20.538Z,99.80
2019-02-25T15:50:55.255Z,95.05
2019-02-25T15:53:23.685Z,109.80
2019-02-25T15:55:52.147Z,107.85
2019-02-25T15:58:21.751Z,109.20
2019-02-25T16:00:50.166Z,104.20
2019-02-25T16:03:20.575Z,107.45
2019-02-25T16:05:52.326Z,111.52
2019-02-25T16:08:21.719Z,105.85
2019-02-25T16:10:51.245Z,109.48
2019-02-25T16:13:19.778Z,107.50
2019-02-25T16:15:48.204Z,104.85
2019-02-25T16:18:16.672Z,109.12
2019-02-25T16:20:46.263Z,99.55
2019-02-25T16:23:15.133Z,101.60
2019-02-25T16:25:43.699Z,101.90
2019-02-25T16:28:13.052Z,102.82
2019-02-25T16:30:44.126Z,105.85
2019-02-25T16:33:14.509Z,95.10
2019-02-25T16:35:46.164Z,106.47
2019-02-25T16:38:15.330Z,114.75
2019-02-25T16:40:44.087Z,106.10
2019-02-25T16:43:13.031Z,106.07
2019-02-25T16:45:42.592Z,107.95
2019-02-25T16:48:12.016Z,100.87
2019-02-25T16:50:43.716Z,103.35
2019-02-25T16:53:14.312Z,106.58
2019-02-25T16:55:44.153Z,99.62
2019-02-25T16:58:14.024Z,100.90
2019-02-25T17:00:42.661Z,106.37
2019-02-25T17:03:13.102Z,106.80
2019-02-25T17:05:42.885Z,104.40
2019-02-25T17:08:12.854Z,100.38
2019-02-25T17:10:41.330Z,90.75
2019-02-25T17:13:12.505Z,93.58
2019-02-25T17:15:40.920Z,85.77
2019-02-25T17:18:09.636Z,89.30
2019-02-25T17:20:38.030Z,91.22
2019-02-25T17:23:09.461Z,90.60
2019-02-25T17:25:38.454Z,95.95
2019-02-25T17:28:08.204Z,94.42
2019-02-25T17:30:38.597Z,92.47
2019-02-25T17:33:10.001Z,98.82
2019-02-25T17:35:39.425Z,101.90
2019-02-25T17:38:07.832Z,110.70
2019-02-25T17:40:36.252Z,105.37
2019-02-25T17:43:04.750Z,117.10
2019-02-25T17:45:34.484Z,118.95
2019-02-25T17:48:08.147Z,113.45
2019-02-25T17:50:36.565Z,127.10
2019-02-25T17:53:05.096Z,131.15
2019-02-25T17:55:36.247Z,132.03
2019-02-25T17:58:04.712Z,124.90
2019-02-25T18:00:39.572Z,129.18
2019-02-25T18:03:07.605Z,131.90
2019-02-25T18:05:38.053Z,122.17
2019-02-25T18:08:08.152Z,115.97
2019-02-25T18:10:36.633Z,118.45
2019-02-25T18:13:08.042Z,128.72
2019-02-25T18:15:35.286Z,117.10
2019-02-25T18:18:06.985Z,123.05
2019-02-25T18:20:36.674Z,111.72
2019-02-25T18:23:05.514Z,116.85
2019-02-25T18:25:34.123Z,115.42
2019-02-25T18:28:04.415Z,111.80
2019-02-25T18:30:33.953Z,114.55
2019-02-25T18:33:05.016Z,114.92
2019-02-25T18:35:35.739Z,114.05
2019-02-25T18:38:04.786Z,114.00
2019-02-25T18:40:33.480Z,108.40
2019-02-25T18:43:04.409Z,111.17
2019-02-25T18:45:33.811Z,120.87
2019-02-25T18:48:04.263Z,120.77
2019-02-25T18:50:34.035Z,101.45
2019-02-25T18:53:02.433Z,115.45
2019-02-25T18:55:33.585Z,115.65
2019-02-25T18:58:00.986Z,118.82
2019-02-25T19:00:35.513Z,120.08
2019-02-25T19:03:04.856Z,121.50
2019-02-25T19:05:34.254Z,113.60
2019-02-25T19:08:04.702Z,116.80
2019-02-25T19:10:34.082Z,115.88
2019-02-25T19:13:02.808Z,118.82
2019-02-25T19:15:31.193Z,118.22
2019-02-25T19:17:59.717Z,114.90
2019-02-25T19:20:28.227Z,115.30
2019-02-25T19:23:00.475Z,119.95
2019-02-25T19:25:26.775Z,118.62
2019-02-25T19:27:56.617Z,107.37
2019-02-25T19:30:27.262Z,113.80
2019-02-25T19:32:55.510Z,109.03
2019-02-25T19:35:27.790Z,116.45
2019-02-25T19:37:56.285Z,120.30
2019-02-25T19:40:24.956Z,124.47
2019-02-25T19:42:54.192Z,127.00
2019-02-25T19:45:23.534Z,111.52
2019-02-25T19:47:52.035Z,126.40
2019-02-25T19:50:22.648Z,117.72
2019-02-25T19:52:51.424Z,111.40
2019-02-25T19:55:20.563Z,119.72
2019-02-25T19:57:50.026Z,119.57
2019-02-25T20:00:23.190Z,124.25
2019-02-25T20:02:52.495Z,120.15
2019-02-25T20:05:21.751Z,123.18
2019-02-25T20:07:51.445Z,113.22
2019-02-25T20:10:20.291Z,121.10
2019-02-25T20:12:50.915Z,122.33
2019-02-25T20:15:24.900Z,117.70
2019-02-25T20:17:52.946Z,111.52
2019-02-25T20:20:21.299Z,125.12
2019-02-25T20:22:49.692Z,118.20
2019-02-25T20:25:21.125Z,131.70
2019-02-25T20:27:50.850Z,123.50
2019-02-25T20:30:21.915Z,118.53
2019-02-25T20:32:50.372Z,129.78
2019-02-25T20:35:19.877Z,124.82
2019-02-25T20:37:52.886Z,123.87
2019-02-25T20:40:21.852Z,128.75
2019-02-25T20:42:51.205Z,135.12
2019-02-25T20:45:31.006Z,134.85
2019-02-25T20:48:00.165Z,130.57
2019-02-25T20:50:29.654Z,138.37
2019-02-25T20:53:01.113Z,133.97
2019-02-25T20:55:29.366Z,134.97
2019-02-25T20:57:58.478Z,141.57
2019-02-25T21:00:27.796Z,137.65
2019-02-25T21:02:56.202Z,142.70
2019-02-25T21:05:27.537Z,142.03
2019-02-25T21:07:59.173Z,136.57
2019-02-25T21:10:27.864Z,138.72
2019-02-25T21:12:57.180Z,147.22
2019-02-25T21:15:26.813Z,153.90
2019-02-25T21:17:57.738Z,149.95
2019-02-25T21:20:26.229Z,141.10
2019-02-25T21:22:57.838Z,136.90
2019-02-25T21:25:27.454Z,138.50
2019-02-25T21:27:59.217Z,152.57
2019-02-25T21:30:26.637Z,161.75
2019-02-25T21:32:57.152Z,162.85
2019-02-25T21:35:29.708Z,154.70
2019-02-25T21:37:56.998Z,155.63
2019-02-25T21:40:43.935Z,153.15
2019-02-25T21:43:16.347Z,142.68
2019-02-25T21:45:46.114Z,152.75
2019-02-25T21:48:13.751Z,135.57
2019-02-25T21:50:42.753Z,135.10
2019-02-25T21:53:15.642Z,139.18
2019-02-25T21:55:43.243Z,138.15
2019-02-25T21:58:11.706Z,129.65
2019-02-25T22:00:40.950Z,126.95
2019-02-25T22:03:12.279Z,136.72
2019-02-25T22:05:39.703Z,129.55
2019-02-25T22:08:08.130Z,128.95
2019-02-25T22:10:39.162Z,130.72
2019-02-25T22:13:08.744Z,125.15
2019-02-25T22:15:39.000Z,133.43
2019-02-25T22:18:09.318Z,137.18
2019-02-25T22:20:39.726Z,129.97
2019-02-25T22:23:08.019Z,129.23
2019-02-25T22:25:38.019Z,144.13
2019-02-25T22:28:07.829Z,133.15
2019-02-25T22:30:36.574Z,132.97
2019-02-25T22:33:07.135Z,138.72
2019-02-25T22:35:37.401Z,134.65
2019-02-25T22:38:05.955Z,142.77
2019-02-25T22:40:36.357Z,136.37
2019-02-25T22:43:04.417Z,139.80
2019-02-25T22:45:33.561Z,135.43
2019-02-25T22:48:03.008Z,126.87
2019-02-25T22:50:33.325Z,136.85
2019-02-25T22:53:03.646Z,131.45
2019-02-25T22:55:31.552Z,145.17
2019-02-25T22:57:59.988Z,134.52
2019-02-25T23:00:48.150Z,136.25
2019-02-25T23:03:18.363Z,131.50
2019-02-25T23:05:48.768Z,131.57
2019-02-25T23:08:20.699Z,132.05
2019-02-25T23:10:49.353Z,136.18
2019-02-25T23:13:19.837Z,130.87
2019-02-25T23:15:49.529Z,130.70
2019-02-25T23:18:21.497Z,128.35
2019-02-25T23:20:48.080Z,138.72
2019-02-25T23:23:18.566Z,133.45
2019-02-25T23:25:48.806Z,136.37
2019-02-25T23:28:18.449Z,133.90
2019-02-25T23:30:47.037Z,127.85
2019-02-25T23:33:17.421Z,129.15
2019-02-25T23:35:46.933Z,115.50
2019-02-25T23:38:15.586Z,116.90
2019-02-25T23:40:45.190Z,121.15
2019-02-25T23:43:16.187Z,118.00
2019-02-25T23:45:44.724Z,119.77
2019-02-25T23:48:14.187Z,116.75
2019-02-25T23:50:42.555Z,119.82
2019-02-25T23:53:11.065Z,120.42
2019-02-25T23:55:43.116Z,111.88
2019-02-25T23:58:12.369Z,115.40
